Beverly Hills, CA (90210)

11:02 PM PDT on October 22, 2014 (GMT -0700)
Spaulding Square | Change Station
CLOSE
Current Station
Personal Weather Station
Location: Los Angeles, CA
Elevation: 358 ft
Nearby Weather Stations

Elev 358 ft 34.09 °N, 118.36 °W | Updated 22 seconds ago

Clear
Clear
62.2 °F
Feels Like 62.2 °F
N
0.0
Wind Variable Wind from South
Gusts 0.0 mph

Today
High -- | Low -- °F
--% Chance of Precip.
Yesterday
High -- | Low -- °F
Precip. -- in
7:04 AM 6:11 PM
Waning Crescent, 0% visible
Pressure 29.96 in
Visibility 10.0 miles
Clouds Clear
Dew Point 53 °F
Humidity 72%
Rainfall 0.00 in
Snow Depth Not available.
UV 0 out of 12
Pollen 4.50 out of 12
Ozone Good
Flu Activity Sporadic
METAR KSMO 230551Z 00000KT 10SM CLR 19/16 A2996 RMK AO2 SLP144 T01890156 10233 20189 53009

More Conditions Fewer Conditions

Pressure 29.96 in
Visibility 10.0 miles
Clouds Clear
Dew Point 53 °F
Humidity 72%
Rainfall 0.00 in
Snow Depth Not available.
UV 0 out of 12
Pollen 4.50 out of 12
Ozone Good
Flu Activity Sporadic
METAR KSMO 230551Z 00000KT 10SM CLR 19/16 A2996 RMK AO2 SLP144 T01890156 10233 20189 53009

More Conditions Fewer Conditions

10-Day Weather Forecast

Almanac

Astronomy

Oct. 22, 2014 Rise Set
Actual Time 7:04 AM PDT 6:11 PM PDT
Civil Twilight 6:39 AM PDT 6:36 PM PDT
Nautical Twilight 6:09 AM PDT 7:05 PM PDT
Astronomical Twilight 5:40 AM PDT 7:34 PM PDT
Moon 5:53 AM PDT (10/22) 5:38 PM PDT (10/22)
Length of Visible Light 11h 57m
Length of Day
11h 06m
Tomorrow will be 1m 59s shorter.
Waning Crescent, 0% of the Moon is Illuminated
Oct 23
Waning Crescent
Oct 23
New
Oct 30
First Quarter
Nov 6
Full
Nov 14
Last Quarter

Yesterday's Extremes

State Highs State Lows

Community

WunderPhotos

Upload Photos

1,764,194 photos uploaded!

Nearby

Air Quality

  Air Quality AQ Index Pollutant
Yesterday Good
OZONE
Current Good
OZONE
Thursday Good
PM10
Thursday Good
OZONE
Thursday Good
CO
Thursday Good
NO2

Snow Depth

Station Depth Elevation
Virginia Lakes Ridge 0 in 9200 ft
Sonora Pass 0 in 8800 ft
Leavitt Meadows 0 in 7200 ft
Summit Meadow 1 in 9122 ft
Poison Flat 0 in 7900 ft

Earthquake Activity

City Distance Mag. Time & Date
Solvang, California 102 miles 2.6 5:35 PM PDT
2014-10-22
Kettleman City, California 144 miles 2.5 9:08 AM PDT
2014-10-22
Minimum magnitude displayed is 2.5.

Coastal Water Temperatures

Place Temperature
Santa Monica Pier 69.1 °F
Los Angeles, CA 70.0 °F
La Jolla, CA 71.1 °F

Nearby Weather Stations